Weather at Brainerd Lakes Regional Airport

Public forecast

Using degrees Fahrenheit for public forecast. Weather courtesy of forecast.io.

Current aviation weather report (METAR) for Brainerd Lakes Regional Airport

Retrieved 2021/03/07 21:53 UTC (1 hour ago):

KBRD 072153Z AUTO 22015KT 10SM CLR 14/03 A2989 RMK AO2 SLP128 T01390033

Aviation forecast (TAF) for Brainerd Lakes Regional Airport

Forecast is more than 6 hours old.

Retrieved 2021/03/07 12:40 UTC (10 hours ago):

TAF KBRD 071138Z 0712/0812 15013G23KT P6SM BKN250 WS020/19045KT FM071700 17015G24KT P6SM BKN250 FM072200 22010KT P6SM SCT070 FM080100 28007KT P6SM SCT070